createdAt,value
2022-09-23T00:00:00.282Z,12.2
2022-09-23T00:01:01.461Z,12.1
2022-09-23T00:02:00.294Z,12.1
2022-09-23T00:03:00.228Z,12.1
2022-09-23T00:04:00.210Z,12.1
2022-09-23T00:05:00.162Z,12.1
2022-09-23T00:06:01.113Z,12.1
2022-09-23T00:07:00.162Z,12.1
2022-09-23T00:08:00.246Z,12.1
2022-09-23T00:09:00.149Z,12.1
2022-09-23T00:10:00.160Z,12.1
2022-09-23T00:11:05.577Z,12.0
2022-09-23T00:12:00.293Z,12.0
2022-09-23T00:13:00.161Z,12.0
2022-09-23T00:14:00.293Z,12.0
2022-09-23T00:15:00.158Z,12.0
2022-09-23T00:16:02.403Z,12.0
2022-09-23T00:17:00.313Z,11.9
2022-09-23T00:18:00.155Z,11.9
2022-09-23T00:19:01.153Z,12.0
2022-09-23T00:20:00.295Z,12.0
2022-09-23T00:21:02.173Z,12.0
2022-09-23T00:22:00.157Z,12.0
2022-09-23T00:23:00.342Z,12.0
2022-09-23T00:24:00.320Z,12.0
2022-09-23T00:25:00.146Z,11.9
2022-09-23T00:26:01.470Z,11.9
2022-09-23T00:27:00.551Z,11.9
2022-09-23T00:28:00.257Z,11.9
2022-09-23T00:29:00.181Z,11.9
2022-09-23T00:30:00.577Z,11.9
2022-09-23T00:31:02.379Z,11.9
2022-09-23T00:32:00.618Z,11.9
2022-09-23T00:33:00.166Z,11.9
2022-09-23T00:34:00.791Z,11.9
2022-09-23T00:35:00.425Z,11.9
2022-09-23T00:36:00.588Z,11.9
2022-09-23T00:37:00.160Z,11.9
2022-09-23T00:38:00.158Z,11.9
2022-09-23T00:39:00.255Z,11.9
2022-09-23T00:40:00.383Z,11.9
2022-09-23T00:41:00.236Z,11.9
2022-09-23T00:42:00.191Z,11.9
2022-09-23T00:43:00.169Z,11.8
2022-09-23T00:44:00.867Z,11.8
2022-09-23T00:45:00.193Z,11.6
2022-09-23T00:46:00.301Z,11.6
2022-09-23T00:47:00.287Z,11.8
2022-09-23T00:48:01.674Z,11.8
2022-09-23T00:49:07.697Z,11.7
2022-09-23T00:50:10.092Z,11.7
2022-09-23T00:51:00.593Z,11.5
2022-09-23T00:52:05.694Z,11.5
2022-09-23T00:53:01.674Z,11.4
2022-09-23T00:54:00.990Z,11.4
2022-09-23T00:55:01.775Z,11.6
2022-09-23T00:56:01.884Z,11.6
2022-09-23T00:57:00.297Z,11.6
2022-09-23T00:58:01.693Z,11.6
2022-09-23T00:59:00.647Z,11.6
2022-09-23T01:00:00.324Z,11.6
2022-09-23T01:01:00.982Z,11.6
2022-09-23T01:02:01.180Z,11.6
2022-09-23T01:03:01.095Z,11.6
2022-09-23T01:04:00.263Z,11.6
2022-09-23T01:05:00.799Z,11.5
2022-09-23T01:06:00.202Z,11.5
2022-09-23T01:07:00.159Z,11.5
2022-09-23T01:08:01.315Z,11.5
2022-09-23T01:09:00.217Z,11.3
2022-09-23T01:10:00.936Z,11.3
2022-09-23T01:11:10.102Z,11.4
2022-09-23T01:12:03.503Z,11.4
2022-09-23T01:13:01.204Z,11.4
2022-09-23T01:14:00.185Z,11.4
2022-09-23T01:15:10.103Z,11.5
2022-09-23T01:16:00.176Z,11.5
2022-09-23T01:17:06.379Z,11.4
2022-09-23T01:18:10.095Z,11.4
2022-09-23T01:19:09.259Z,11.4
2022-09-23T01:20:01.216Z,11.4
2022-09-23T01:21:00.154Z,11.4
2022-09-23T01:22:10.105Z,11.4
2022-09-23T01:23:10.105Z,11.4
2022-09-23T01:24:01.167Z,11.4
2022-09-23T01:25:03.409Z,11.4
2022-09-23T01:26:01.163Z,11.4
2022-09-23T01:27:10.104Z,11.4
2022-09-23T01:28:10.099Z,11.4
2022-09-23T01:29:10.110Z,11.4
2022-09-23T01:30:10.133Z,11.4
2022-09-23T01:31:05.147Z,11.4
2022-09-23T01:32:07.564Z,11.4
2022-09-23T01:33:03.398Z,11.4
2022-09-23T01:34:08.602Z,11.4
2022-09-23T01:35:01.161Z,11.3
2022-09-23T01:36:05.416Z,11.3
2022-09-23T01:37:05.024Z,11.2
2022-09-23T01:38:00.159Z,11.2
2022-09-23T01:39:07.037Z,11.2
2022-09-23T01:40:05.773Z,11.2
2022-09-23T01:41:10.099Z,11.2
2022-09-23T01:42:10.100Z,11.2
2022-09-23T01:43:09.975Z,11.2
2022-09-23T01:44:07.170Z,11.2
2022-09-23T01:45:05.915Z,11.1
2022-09-23T01:46:02.614Z,11.1
2022-09-23T01:47:04.357Z,11.3
2022-09-23T01:48:00.274Z,11.3
2022-09-23T01:49:06.420Z,11.3
2022-09-23T01:50:00.155Z,11.3
2022-09-23T01:51:10.095Z,11.1
2022-09-23T01:52:10.103Z,11.1
2022-09-23T01:53:03.940Z,11.0
2022-09-23T01:54:03.418Z,11.0
2022-09-23T01:55:04.307Z,11.1
2022-09-23T01:56:04.045Z,11.1
2022-09-23T01:57:03.706Z,10.9
2022-09-23T01:58:03.768Z,10.9
2022-09-23T01:59:00.153Z,11.1
2022-09-23T02:00:03.964Z,11.1
2022-09-23T02:01:01.747Z,11.1
2022-09-23T02:02:00.213Z,11.1
2022-09-23T02:03:03.614Z,11.1
2022-09-23T02:04:03.198Z,11.1
2022-09-23T02:05:04.069Z,11.1
2022-09-23T02:06:00.141Z,11.1
2022-09-23T02:07:03.734Z,11.0
2022-09-23T02:08:05.542Z,11.0
2022-09-23T02:09:03.561Z,11.1
2022-09-23T02:10:04.695Z,11.1
2022-09-23T02:11:05.778Z,11.1
2022-09-23T02:12:04.294Z,11.1
2022-09-23T02:13:03.539Z,11.1
2022-09-23T02:14:06.713Z,11.1
2022-09-23T02:15:03.489Z,11.1
2022-09-23T02:16:04.031Z,11.1
2022-09-23T02:17:05.282Z,11.2
2022-09-23T02:18:02.736Z,11.2
2022-09-23T02:19:05.923Z,11.1
2022-09-23T02:20:02.420Z,11.1
2022-09-23T02:21:03.444Z,11.0
2022-09-23T02:22:08.566Z,11.0
2022-09-23T02:23:01.150Z,11.0
2022-09-23T02:24:04.234Z,11.0
2022-09-23T02:25:00.972Z,10.9
2022-09-23T02:26:10.091Z,10.9
2022-09-23T02:27:09.426Z,11.1
2022-09-23T02:28:07.837Z,11.1
2022-09-23T02:29:06.324Z,11.1
2022-09-23T02:30:03.457Z,11.1
2022-09-23T02:31:06.286Z,11.1
2022-09-23T02:32:00.277Z,11.1
2022-09-23T02:33:03.844Z,11.0
2022-09-23T02:34:10.090Z,11.0
2022-09-23T02:35:04.649Z,11.0
2022-09-23T02:36:05.819Z,11.0
2022-09-23T02:37:03.408Z,11.0
2022-09-23T02:38:03.409Z,11.0
2022-09-23T02:39:02.324Z,11.0
2022-09-23T02:40:07.849Z,11.0
2022-09-23T02:41:06.211Z,11.1
2022-09-23T02:42:04.645Z,11.1
2022-09-23T02:43:05.160Z,11.1
2022-09-23T02:44:04.902Z,11.1
2022-09-23T02:45:00.174Z,11.1
2022-09-23T02:46:01.405Z,11.1
2022-09-23T02:47:00.389Z,11.2
2022-09-23T02:48:10.092Z,11.2
2022-09-23T02:49:07.596Z,11.1
2022-09-23T02:50:00.339Z,11.1
2022-09-23T02:51:00.297Z,11.1
2022-09-23T02:52:01.214Z,11.1
2022-09-23T02:53:00.278Z,11.0
2022-09-23T02:54:00.176Z,11.0
2022-09-23T02:55:00.253Z,11.0
2022-09-23T02:56:00.649Z,11.0
2022-09-23T02:57:01.214Z,11.0
2022-09-23T02:58:00.960Z,11.0
2022-09-23T02:59:01.003Z,10.9
2022-09-23T03:00:00.333Z,10.9
2022-09-23T03:01:03.543Z,11.0
2022-09-23T03:02:03.459Z,11.0
2022-09-23T03:03:08.017Z,11.0
2022-09-23T03:04:10.089Z,11.0
2022-09-23T03:05:00.161Z,10.9
2022-09-23T03:06:03.932Z,10.9
2022-09-23T03:07:00.140Z,11.0
2022-09-23T03:08:09.222Z,11.0
2022-09-23T03:09:05.462Z,10.9
2022-09-23T03:10:10.101Z,10.9
2022-09-23T03:11:09.239Z,11.0
2022-09-23T03:12:10.091Z,11.0
2022-09-23T03:13:10.090Z,11.0
2022-09-23T03:14:10.084Z,11.0
2022-09-23T03:15:00.142Z,10.9
2022-09-23T03:16:03.463Z,10.9
2022-09-23T03:17:04.019Z,10.8
2022-09-23T03:18:10.099Z,10.8
2022-09-23T03:19:10.089Z,10.7
2022-09-23T03:20:05.914Z,10.7
2022-09-23T03:21:04.508Z,10.8
2022-09-23T03:22:05.731Z,10.8
2022-09-23T03:23:01.776Z,10.7
2022-09-23T03:24:02.788Z,10.7
2022-09-23T03:25:04.461Z,10.8
2022-09-23T03:26:03.654Z,10.8
2022-09-23T03:27:02.611Z,10.7
2022-09-23T03:28:00.591Z,10.7
2022-09-23T03:29:02.829Z,10.7
2022-09-23T03:30:00.480Z,10.7
2022-09-23T03:31:00.627Z,10.7
2022-09-23T03:32:00.340Z,10.7
2022-09-23T03:33:02.158Z,10.8
2022-09-23T03:34:02.044Z,10.8
2022-09-23T03:35:01.831Z,10.6
2022-09-23T03:36:02.746Z,10.6
2022-09-23T03:37:04.476Z,10.6
2022-09-23T03:38:05.574Z,10.6
2022-09-23T03:39:10.083Z,10.6
2022-09-23T03:40:05.981Z,10.6
2022-09-23T03:41:01.747Z,10.4
2022-09-23T03:42:04.168Z,10.4
2022-09-23T03:43:00.698Z,10.3
2022-09-23T03:44:00.878Z,10.3
2022-09-23T03:45:03.066Z,10.3
2022-09-23T03:46:00.236Z,10.3
2022-09-23T03:47:00.487Z,10.6
2022-09-23T03:48:00.362Z,10.6
2022-09-23T03:49:07.242Z,10.6
2022-09-23T03:50:00.175Z,10.6
2022-09-23T03:51:07.652Z,10.5
2022-09-23T03:52:00.231Z,10.5
2022-09-23T03:53:00.496Z,10.6
2022-09-23T03:54:00.242Z,10.6
2022-09-23T03:55:00.192Z,10.5
2022-09-23T03:56:00.276Z,10.5
2022-09-23T03:57:01.787Z,10.6
2022-09-23T03:58:00.161Z,10.6
2022-09-23T03:59:00.191Z,10.4
2022-09-23T04:00:00.255Z,10.4
2022-09-23T04:01:00.234Z,10.4
2022-09-23T04:02:00.216Z,10.4
2022-09-23T04:03:00.285Z,10.4
2022-09-23T04:04:00.292Z,10.4
2022-09-23T04:05:00.242Z,10.5
2022-09-23T04:06:00.160Z,10.5
2022-09-23T04:07:00.630Z,10.5
2022-09-23T04:08:00.289Z,10.5
2022-09-23T04:09:00.218Z,10.5
2022-09-23T04:10:00.187Z,10.5
2022-09-23T04:11:00.828Z,10.4
2022-09-23T04:12:00.315Z,10.4
2022-09-23T04:13:00.164Z,10.4
2022-09-23T04:14:00.384Z,10.4
2022-09-23T04:15:00.197Z,10.4
2022-09-23T04:16:00.289Z,10.4
2022-09-23T04:17:00.151Z,10.5
2022-09-23T04:18:00.158Z,10.5
2022-09-23T04:19:00.179Z,10.4
2022-09-23T04:20:00.231Z,10.4
2022-09-23T04:21:00.227Z,10.4
2022-09-23T04:22:00.160Z,10.4
2022-09-23T04:23:00.154Z,10.4
2022-09-23T04:24:00.286Z,10.4
2022-09-23T04:25:00.146Z,10.4
2022-09-23T04:26:00.153Z,10.4
2022-09-23T04:27:00.200Z,10.4
2022-09-23T04:28:00.274Z,10.4
2022-09-23T04:29:00.556Z,10.4
2022-09-23T04:30:00.215Z,10.4
2022-09-23T04:31:04.638Z,10.3
2022-09-23T04:32:00.303Z,10.3
2022-09-23T04:33:00.160Z,10.4
2022-09-23T04:34:00.156Z,10.4
2022-09-23T04:35:00.219Z,10.3
2022-09-23T04:36:00.211Z,10.3
2022-09-23T04:37:00.156Z,10.3
2022-09-23T04:38:00.174Z,10.3
2022-09-23T04:39:00.470Z,10.3
2022-09-23T04:40:00.289Z,10.3
2022-09-23T04:41:00.176Z,10.3
2022-09-23T04:42:00.154Z,10.3
2022-09-23T04:43:00.154Z,10.3
2022-09-23T04:44:00.281Z,10.3
2022-09-23T04:45:00.158Z,10.3
2022-09-23T04:46:01.056Z,10.3
2022-09-23T04:47:00.302Z,10.4
2022-09-23T04:48:00.311Z,10.4
2022-09-23T04:49:00.261Z,10.3
2022-09-23T04:50:00.247Z,10.3
2022-09-23T04:51:01.188Z,10.3
2022-09-23T04:52:00.280Z,10.3
2022-09-23T04:53:00.166Z,10.2
2022-09-23T04:54:00.153Z,10.2
2022-09-23T04:55:00.156Z,10.2
2022-09-23T04:56:00.890Z,10.2
2022-09-23T04:57:00.151Z,10.2
2022-09-23T04:58:00.177Z,10.2
2022-09-23T04:59:00.452Z,10.2
2022-09-23T05:00:00.212Z,10.2
2022-09-23T05:01:10.145Z,10.3
2022-09-23T05:02:00.220Z,10.3
2022-09-23T05:03:00.154Z,10.2
2022-09-23T05:04:01.593Z,10.2
2022-09-23T05:05:00.150Z,10.2
2022-09-23T05:06:00.191Z,10.2
2022-09-23T05:07:03.192Z,10.3
2022-09-23T05:08:00.260Z,10.3
2022-09-23T05:09:00.885Z,10.3
2022-09-23T05:10:00.187Z,10.3
2022-09-23T05:11:01.250Z,10.3
2022-09-23T05:12:00.281Z,10.3
2022-09-23T05:13:00.151Z,10.3
2022-09-23T05:14:00.174Z,10.3
2022-09-23T05:15:00.194Z,10.3
2022-09-23T05:16:01.677Z,10.3
2022-09-23T05:17:00.157Z,10.2
2022-09-23T05:18:00.160Z,10.2
2022-09-23T05:19:00.232Z,10.3
2022-09-23T05:20:00.254Z,10.3
2022-09-23T05:21:00.760Z,10.2
2022-09-23T05:22:00.164Z,10.2
2022-09-23T05:23:00.147Z,10.3
2022-09-23T05:24:00.240Z,10.3
2022-09-23T05:25:00.225Z,10.3
2022-09-23T05:26:01.814Z,10.3
2022-09-23T05:27:00.151Z,10.3
2022-09-23T05:28:00.276Z,10.3
2022-09-23T05:29:00.282Z,10.3
2022-09-23T05:30:00.183Z,10.3
2022-09-23T05:31:01.166Z,10.3
2022-09-23T05:32:00.303Z,10.3
2022-09-23T05:33:00.151Z,10.3
2022-09-23T05:34:01.335Z,10.3
2022-09-23T05:35:00.156Z,10.3
2022-09-23T05:36:00.723Z,10.3
2022-09-23T05:37:00.310Z,10.3
2022-09-23T05:38:00.160Z,10.3
2022-09-23T05:39:00.493Z,10.3
2022-09-23T05:40:00.271Z,10.3
2022-09-23T05:41:01.622Z,10.3
2022-09-23T05:42:00.164Z,10.3
2022-09-23T05:43:00.147Z,10.4
2022-09-23T05:44:00.317Z,10.4
2022-09-23T05:45:00.150Z,10.3
2022-09-23T05:46:03.024Z,10.3
2022-09-23T05:47:00.243Z,10.4
2022-09-23T05:48:00.219Z,10.4
2022-09-23T05:49:02.830Z,10.4
2022-09-23T05:50:00.741Z,10.4
2022-09-23T05:51:00.407Z,10.4
2022-09-23T05:52:00.214Z,10.4
2022-09-23T05:53:00.156Z,10.4
2022-09-23T05:54:00.374Z,10.4
2022-09-23T05:55:00.161Z,10.4
2022-09-23T05:56:00.313Z,10.4
2022-09-23T05:57:02.766Z,10.5
2022-09-23T05:58:00.152Z,10.5
2022-09-23T05:59:01.027Z,10.5
2022-09-23T06:00:00.255Z,10.5
2022-09-23T06:01:00.157Z,10.4
2022-09-23T06:02:00.204Z,10.4
2022-09-23T06:03:00.201Z,10.4
2022-09-23T06:04:01.132Z,10.4
2022-09-23T06:05:00.178Z,10.4
2022-09-23T06:06:00.158Z,10.4
2022-09-23T06:07:03.285Z,10.5
2022-09-23T06:08:00.299Z,10.5
2022-09-23T06:09:00.554Z,10.5
2022-09-23T06:10:00.163Z,10.5
2022-09-23T06:11:04.558Z,10.5
2022-09-23T06:12:00.243Z,10.5
2022-09-23T06:13:00.161Z,10.6
2022-09-23T06:14:00.620Z,10.6
2022-09-23T06:15:00.158Z,10.5
2022-09-23T06:16:00.617Z,10.5
2022-09-23T06:17:00.151Z,10.5
2022-09-23T06:18:00.244Z,10.5
2022-09-23T06:19:05.105Z,10.6
2022-09-23T06:20:00.294Z,10.6
2022-09-23T06:21:01.123Z,10.6
2022-09-23T06:22:00.160Z,10.6
2022-09-23T06:23:05.848Z,10.8
2022-09-23T06:24:00.343Z,10.8
2022-09-23T06:25:00.152Z,10.8
2022-09-23T06:26:01.019Z,10.8
2022-09-23T06:27:00.148Z,10.7
2022-09-23T06:28:00.268Z,10.7
2022-09-23T06:29:00.753Z,10.8
2022-09-23T06:30:00.198Z,10.8
2022-09-23T06:31:01.052Z,10.8
2022-09-23T06:32:00.330Z,10.8
2022-09-23T06:33:00.155Z,10.8
2022-09-23T06:34:09.487Z,10.8
2022-09-23T06:35:00.182Z,10.8
2022-09-23T06:36:01.462Z,10.8
2022-09-23T06:37:03.172Z,11.0
2022-09-23T06:38:03.708Z,11.0
2022-09-23T06:39:00.495Z,11.0
2022-09-23T06:40:00.256Z,11.0
2022-09-23T06:41:00.650Z,10.9
2022-09-23T06:42:00.166Z,10.9
2022-09-23T06:43:01.043Z,10.9
2022-09-23T06:44:00.256Z,10.9
2022-09-23T06:45:00.156Z,11.0
2022-09-23T06:46:01.891Z,11.0
2022-09-23T06:47:00.262Z,11.0
2022-09-23T06:48:00.263Z,11.0
2022-09-23T06:49:00.146Z,11.1
2022-09-23T06:50:00.151Z,11.1
2022-09-23T06:51:01.192Z,11.1
2022-09-23T06:52:00.226Z,11.1
2022-09-23T06:53:00.180Z,11.0
2022-09-23T06:54:00.315Z,11.0
2022-09-23T06:55:00.355Z,11.1
2022-09-23T06:56:01.048Z,11.1
2022-09-23T06:57:00.149Z,11.1
2022-09-23T06:58:00.154Z,11.1
2022-09-23T06:59:00.151Z,11.2
2022-09-23T07:00:00.300Z,11.2
2022-09-23T07:01:01.181Z,11.2
2022-09-23T07:02:00.587Z,11.2
2022-09-23T07:03:00.234Z,11.2
2022-09-23T07:04:00.279Z,11.2
2022-09-23T07:05:00.148Z,11.3
2022-09-23T07:06:00.238Z,11.3
2022-09-23T07:07:00.157Z,11.2
2022-09-23T07:08:00.329Z,11.2
2022-09-23T07:09:00.152Z,11.4
2022-09-23T07:10:00.168Z,11.4
2022-09-23T07:11:01.748Z,11.3
2022-09-23T07:12:00.248Z,11.3
2022-09-23T07:13:00.816Z,11.6
2022-09-23T07:14:00.173Z,11.6
2022-09-23T07:15:00.179Z,11.5
2022-09-23T07:16:00.740Z,11.5
2022-09-23T07:17:00.164Z,11.5
2022-09-23T07:18:00.149Z,11.5
2022-09-23T07:19:00.162Z,11.4
2022-09-23T07:20:00.305Z,11.4
2022-09-23T07:21:04.406Z,11.5
2022-09-23T07:22:00.145Z,11.5
2022-09-23T07:23:00.159Z,11.5
2022-09-23T07:24:00.267Z,11.5
2022-09-23T07:25:00.153Z,11.6
2022-09-23T07:26:00.412Z,11.6
2022-09-23T07:27:00.152Z,11.7
2022-09-23T07:28:00.315Z,11.7
2022-09-23T07:29:01.092Z,11.6
2022-09-23T07:30:00.207Z,11.6
2022-09-23T07:31:02.309Z,11.6
2022-09-23T07:32:08.521Z,11.6
2022-09-23T07:33:00.278Z,11.7
2022-09-23T07:34:00.836Z,11.7
2022-09-23T07:35:00.167Z,11.9
2022-09-23T07:36:09.616Z,11.9
2022-09-23T07:37:00.162Z,11.9
2022-09-23T07:38:00.156Z,11.9
2022-09-23T07:39:00.150Z,11.9
2022-09-23T07:40:00.262Z,11.9
2022-09-23T07:41:01.031Z,12.0
2022-09-23T07:42:00.154Z,12.0
2022-09-23T07:43:00.173Z,12.1
2022-09-23T07:44:00.251Z,12.1
2022-09-23T07:45:00.180Z,12.2
2022-09-23T07:46:01.084Z,12.2
2022-09-23T07:47:00.154Z,12.1
2022-09-23T07:48:00.672Z,12.1
2022-09-23T07:49:00.521Z,12.2
2022-09-23T07:50:00.194Z,12.2
2022-09-23T07:51:05.349Z,12.2
2022-09-23T07:52:00.215Z,12.2
2022-09-23T07:53:00.159Z,12.3
2022-09-23T07:54:00.271Z,12.3
2022-09-23T07:55:00.169Z,12.2
2022-09-23T07:56:00.470Z,12.2
2022-09-23T07:57:00.322Z,12.5
2022-09-23T07:58:00.163Z,12.5
2022-09-23T07:59:00.670Z,12.4
2022-09-23T08:00:00.440Z,12.4
2022-09-23T08:01:01.068Z,12.4
2022-09-23T08:02:00.230Z,12.4
2022-09-23T08:03:00.267Z,12.5
2022-09-23T08:04:02.001Z,12.5
2022-09-23T08:05:00.153Z,12.6
2022-09-23T08:06:08.773Z,12.6
2022-09-23T08:07:01.399Z,12.6
2022-09-23T08:08:00.228Z,12.6
2022-09-23T08:09:00.549Z,12.8
2022-09-23T08:10:00.297Z,12.8
2022-09-23T08:11:01.183Z,12.8
2022-09-23T08:12:01.118Z,12.8
2022-09-23T08:13:00.156Z,12.7
2022-09-23T08:14:00.153Z,12.7
2022-09-23T08:15:00.168Z,12.8
2022-09-23T08:16:00.295Z,12.8
2022-09-23T08:17:00.168Z,12.7
2022-09-23T08:18:00.158Z,12.7
2022-09-23T08:19:00.377Z,13.0
2022-09-23T08:20:00.265Z,13.0
2022-09-23T08:21:00.555Z,13.0
2022-09-23T08:22:00.165Z,13.0
2022-09-23T08:23:00.142Z,13.1
2022-09-23T08:24:00.315Z,13.1
2022-09-23T08:25:00.187Z,13.2
2022-09-23T08:26:01.472Z,13.2
2022-09-23T08:27:00.162Z,13.2
2022-09-23T08:28:00.266Z,13.2
2022-09-23T08:29:00.351Z,13.2
2022-09-23T08:30:00.153Z,13.2
2022-09-23T08:31:00.246Z,13.4
2022-09-23T08:32:00.274Z,13.4
2022-09-23T08:33:00.155Z,13.4
2022-09-23T08:34:00.312Z,13.4
2022-09-23T08:35:00.156Z,13.5
2022-09-23T08:36:00.992Z,13.5
2022-09-23T08:37:00.328Z,13.5
2022-09-23T08:38:00.151Z,13.5
2022-09-23T08:39:00.224Z,13.5
2022-09-23T08:40:00.263Z,13.5
2022-09-23T08:41:04.979Z,13.6
2022-09-23T08:42:01.144Z,13.6
2022-09-23T08:43:00.181Z,13.7
2022-09-23T08:44:02.862Z,13.7
2022-09-23T08:45:02.945Z,13.9
2022-09-23T08:46:05.013Z,13.9
2022-09-23T08:47:10.090Z,14.0
2022-09-23T08:48:03.237Z,14.0
2022-09-23T08:49:00.274Z,13.9
2022-09-23T08:50:10.091Z,13.9
2022-09-23T08:51:02.931Z,13.9
2022-09-23T08:52:04.332Z,13.9
2022-09-23T08:53:01.641Z,14.0
2022-09-23T08:54:00.530Z,14.0
2022-09-23T08:55:01.241Z,14.1
2022-09-23T08:56:03.975Z,14.1
2022-09-23T08:57:01.705Z,14.0
2022-09-23T08:58:24.482Z,14.0
2022-09-23T08:59:10.195Z,14.1
2022-09-23T09:00:00.982Z,14.1
2022-09-23T09:01:10.185Z,14.1
2022-09-23T09:02:04.998Z,14.1
2022-09-23T09:03:00.403Z,14.3
2022-09-23T09:04:01.496Z,14.3
2022-09-23T09:05:01.643Z,14.4
2022-09-23T09:06:00.160Z,14.4
2022-09-23T09:07:24.644Z,14.5
2022-09-23T09:08:00.647Z,14.5
2022-09-23T09:09:01.196Z,14.6
2022-09-23T09:10:10.091Z,14.6
2022-09-23T09:11:00.155Z,14.6
2022-09-23T09:12:10.088Z,14.6
2022-09-23T09:13:09.618Z,14.7
2022-09-23T09:14:10.091Z,14.7
2022-09-23T09:15:01.434Z,14.7
2022-09-23T09:16:10.215Z,14.7
2022-09-23T09:17:03.840Z,14.9
2022-09-23T09:18:00.133Z,14.9
2022-09-23T09:19:00.549Z,15.0
2022-09-23T09:20:04.833Z,15.0
2022-09-23T09:21:07.231Z,15.1
2022-09-23T09:22:03.927Z,15.1
2022-09-23T09:23:05.635Z,15.2
2022-09-23T09:24:01.250Z,15.2
2022-09-23T09:25:04.580Z,15.2
2022-09-23T09:26:00.961Z,15.2
2022-09-23T09:27:07.941Z,15.3
2022-09-23T09:28:00.290Z,15.3
2022-09-23T09:29:23.716Z,15.3
2022-09-23T09:30:00.493Z,15.3
2022-09-23T09:31:01.725Z,15.4
2022-09-23T09:32:10.090Z,15.4
2022-09-23T09:33:01.349Z,15.4
2022-09-23T09:34:03.666Z,15.4
2022-09-23T09:35:05.906Z,15.5
2022-09-23T09:36:05.885Z,15.5
2022-09-23T09:37:06.808Z,15.6
2022-09-23T09:38:00.236Z,15.6
2022-09-23T09:39:00.507Z,15.7
2022-09-23T09:40:00.694Z,15.7
2022-09-23T09:41:07.776Z,15.9
2022-09-23T09:42:00.193Z,15.9
2022-09-23T09:43:00.547Z,16.1
2022-09-23T09:44:01.595Z,16.1
2022-09-23T09:45:01.849Z,16.1
2022-09-23T09:46:01.146Z,16.1
2022-09-23T09:47:10.089Z,16.2
2022-09-23T09:48:10.086Z,16.2
2022-09-23T09:49:02.455Z,16.2
2022-09-23T09:50:07.637Z,16.2
2022-09-23T09:51:10.087Z,16.1
2022-09-23T09:52:10.094Z,16.1
2022-09-23T09:53:10.049Z,16.3
2022-09-23T09:54:10.036Z,16.3
2022-09-23T09:55:10.050Z,16.4
2022-09-23T09:56:04.629Z,16.4
2022-09-23T09:57:03.057Z,16.5
2022-09-23T09:58:02.611Z,16.5
2022-09-23T09:59:07.741Z,16.5
2022-09-23T10:00:10.049Z,16.5
2022-09-23T10:01:00.560Z,16.5
2022-09-23T10:02:10.028Z,16.5
2022-09-23T10:03:02.032Z,16.5
2022-09-23T10:04:02.129Z,16.5
2022-09-23T10:05:01.524Z,16.6
2022-09-23T10:06:10.029Z,16.6
2022-09-23T10:07:05.308Z,16.6
2022-09-23T10:08:10.033Z,16.6
2022-09-23T10:09:00.150Z,16.6
2022-09-23T10:10:22.077Z,16.6
2022-09-23T10:11:01.658Z,16.6
2022-09-23T10:12:02.871Z,16.6
2022-09-23T10:13:10.032Z,16.7
2022-09-23T10:14:10.027Z,16.7
2022-09-23T10:15:00.102Z,16.8
2022-09-23T10:16:01.077Z,16.8
2022-09-23T10:17:01.446Z,16.9
2022-09-23T10:18:00.196Z,16.9
2022-09-23T10:19:02.238Z,17.0
2022-09-23T10:20:04.542Z,17.0
2022-09-23T10:21:08.990Z,17.2
2022-09-23T10:22:02.517Z,17.2
2022-09-23T10:23:04.781Z,17.2
2022-09-23T10:24:01.514Z,17.2
2022-09-23T10:25:01.876Z,17.2
2022-09-23T10:26:01.758Z,17.2
2022-09-23T10:27:03.321Z,17.2
2022-09-23T10:28:10.031Z,17.2
2022-09-23T10:29:01.362Z,17.3
2022-09-23T10:30:02.256Z,17.3
2022-09-23T10:31:04.497Z,17.4
2022-09-23T10:32:10.029Z,17.4
2022-09-23T10:33:00.106Z,17.3
2022-09-23T10:34:02.322Z,17.3
2022-09-23T10:35:02.940Z,17.4
2022-09-23T10:36:00.144Z,17.4
2022-09-23T10:37:02.124Z,17.4
2022-09-23T10:38:00.251Z,17.4
2022-09-23T10:39:01.359Z,17.6
2022-09-23T10:40:10.083Z,17.6
2022-09-23T10:41:01.286Z,17.5
2022-09-23T10:42:04.423Z,17.5
2022-09-23T10:43:10.034Z,17.6
2022-09-23T10:44:07.605Z,17.6
2022-09-23T10:45:10.038Z,17.6
2022-09-23T10:46:02.159Z,17.6
2022-09-23T10:47:07.944Z,17.7
2022-09-23T10:48:00.224Z,17.7
2022-09-23T10:49:08.452Z,17.9
2022-09-23T10:50:10.048Z,17.9
2022-09-23T10:51:03.297Z,17.9
2022-09-23T10:52:08.006Z,17.9
2022-09-23T10:53:01.163Z,18.0
2022-09-23T10:54:10.073Z,18.0
2022-09-23T10:55:10.049Z,18.0
2022-09-23T10:56:01.110Z,18.0
2022-09-23T10:57:05.318Z,18.0
2022-09-23T10:58:00.145Z,18.0
2022-09-23T10:59:00.087Z,18.1
2022-09-23T11:00:09.514Z,18.1
2022-09-23T11:01:08.690Z,18.0
2022-09-23T11:02:09.011Z,18.0
2022-09-23T11:03:10.043Z,18.1
2022-09-23T11:04:01.279Z,18.1
2022-09-23T11:05:10.139Z,18.2
2022-09-23T11:06:10.047Z,18.2
2022-09-23T11:07:10.045Z,18.3
2022-09-23T11:08:10.040Z,18.3
2022-09-23T11:09:03.349Z,18.3
2022-09-23T11:10:01.103Z,18.3
2022-09-23T11:11:01.103Z,18.4
2022-09-23T11:12:10.049Z,18.4
2022-09-23T11:13:10.044Z,18.2
2022-09-23T11:14:09.575Z,18.2
2022-09-23T11:15:07.573Z,18.2
2022-09-23T11:16:10.094Z,18.2
2022-09-23T11:17:01.191Z,18.3
2022-09-23T11:18:10.047Z,18.3
2022-09-23T11:19:00.097Z,18.3
2022-09-23T11:20:10.054Z,18.3
2022-09-23T11:21:06.315Z,18.3
2022-09-23T11:22:07.502Z,18.3
2022-09-23T11:23:00.110Z,18.4
2022-09-23T11:24:10.112Z,18.4
2022-09-23T11:25:01.109Z,18.6
2022-09-23T11:26:10.062Z,18.6
2022-09-23T11:27:10.054Z,18.6
2022-09-23T11:28:10.058Z,18.6
2022-09-23T11:29:03.370Z,18.6
2022-09-23T11:30:10.058Z,18.6
2022-09-23T11:31:10.205Z,18.7
2022-09-23T11:32:10.054Z,18.7
2022-09-23T11:33:00.192Z,18.7
2022-09-23T11:34:10.161Z,18.7
2022-09-23T11:35:10.062Z,18.8
2022-09-23T11:36:05.011Z,18.8
2022-09-23T11:37:03.379Z,18.9
2022-09-23T11:38:10.053Z,18.9
2022-09-23T11:39:01.691Z,18.8
2022-09-23T11:40:03.805Z,18.8
2022-09-23T11:41:02.941Z,18.9
2022-09-23T11:42:00.531Z,18.9
2022-09-23T11:43:01.111Z,18.9
2022-09-23T11:44:05.811Z,18.9
2022-09-23T11:45:05.985Z,19.2
2022-09-23T11:46:10.256Z,19.2
2022-09-23T11:47:10.056Z,19.1
2022-09-23T11:48:04.542Z,19.1
2022-09-23T11:49:10.057Z,19.1
2022-09-23T11:50:04.221Z,19.1
2022-09-23T11:51:03.792Z,19.1
2022-09-23T11:52:00.120Z,19.1
2022-09-23T11:53:03.365Z,19.2
2022-09-23T11:54:04.609Z,19.2
2022-09-23T11:55:13.594Z,19.1
2022-09-23T11:56:05.942Z,19.1
2022-09-23T11:57:02.255Z,19.2
2022-09-23T11:58:06.126Z,19.2
2022-09-23T11:59:10.276Z,19.2
2022-09-23T12:00:02.130Z,19.2
2022-09-23T12:01:03.336Z,19.2
2022-09-23T12:02:15.401Z,19.2
2022-09-23T12:03:10.235Z,19.2
2022-09-23T12:04:08.403Z,19.2
2022-09-23T12:05:02.715Z,19.2
2022-09-23T12:06:03.766Z,19.2
2022-09-23T12:07:00.105Z,19.2
2022-09-23T12:08:10.057Z,19.2
2022-09-23T12:09:02.740Z,19.2
2022-09-23T12:10:03.027Z,19.2
2022-09-23T12:11:10.059Z,19.4
2022-09-23T12:12:00.109Z,19.4
2022-09-23T12:13:03.366Z,19.5
2022-09-23T12:14:00.184Z,19.5
2022-09-23T12:15:10.068Z,19.4
2022-09-23T12:16:10.286Z,19.4
2022-09-23T12:17:03.402Z,19.5
2022-09-23T12:18:10.067Z,19.5
2022-09-23T12:19:08.740Z,19.5
2022-09-23T12:20:10.086Z,19.5
2022-09-23T12:21:18.278Z,19.6
2022-09-23T12:22:10.060Z,19.6
2022-09-23T12:23:10.059Z,19.4
2022-09-23T12:24:10.119Z,19.4
2022-09-23T12:25:10.075Z,19.5
2022-09-23T12:26:01.851Z,19.5
2022-09-23T12:27:03.135Z,19.5
2022-09-23T12:28:03.821Z,19.5
2022-09-23T12:29:02.158Z,19.5
2022-09-23T12:30:02.781Z,19.5
2022-09-23T12:31:02.054Z,19.4
2022-09-23T12:32:00.196Z,19.4
2022-09-23T12:33:10.147Z,19.6
2022-09-23T12:34:02.030Z,19.6
2022-09-23T12:35:00.254Z,19.7
2022-09-23T12:36:02.745Z,19.7
2022-09-23T12:37:03.669Z,19.6
2022-09-23T12:38:00.427Z,19.6
2022-09-23T12:39:02.210Z,19.5
2022-09-23T12:40:03.929Z,19.5
2022-09-23T12:41:00.366Z,19.4
2022-09-23T12:42:03.566Z,19.4
2022-09-23T12:43:01.256Z,19.6
2022-09-23T12:44:10.188Z,19.6
2022-09-23T12:45:10.066Z,19.6
2022-09-23T12:46:10.103Z,19.6
2022-09-23T12:47:10.060Z,19.5
2022-09-23T12:48:10.064Z,19.5
2022-09-23T12:49:01.426Z,19.3
2022-09-23T12:50:00.181Z,19.3
2022-09-23T12:51:03.382Z,19.2
2022-09-23T12:52:10.068Z,19.2
2022-09-23T12:53:10.068Z,19.4
2022-09-23T12:54:03.485Z,19.4
2022-09-23T12:55:10.074Z,19.4
2022-09-23T12:56:01.388Z,19.4
2022-09-23T12:57:00.795Z,19.4
2022-09-23T12:58:00.144Z,19.4
2022-09-23T12:59:10.067Z,19.5
2022-09-23T13:00:07.510Z,19.5
2022-09-23T13:01:06.364Z,19.6
2022-09-23T13:02:10.256Z,19.6
2022-09-23T13:03:00.522Z,19.6
2022-09-23T13:04:00.240Z,19.6
2022-09-23T13:05:00.134Z,19.5
2022-09-23T13:06:00.440Z,19.5
2022-09-23T13:07:07.787Z,19.5
2022-09-23T13:08:04.044Z,19.5
2022-09-23T13:09:00.140Z,19.5
2022-09-23T13:10:07.312Z,19.5
2022-09-23T13:11:01.260Z,19.5
2022-09-23T13:12:00.958Z,19.5
2022-09-23T13:13:00.694Z,19.6
2022-09-23T13:14:01.113Z,19.6
2022-09-23T13:15:03.184Z,19.7
2022-09-23T13:16:10.093Z,19.7
2022-09-23T13:17:00.358Z,19.7
2022-09-23T13:18:10.065Z,19.7